Hewlett Bay Park, New York
Current Conditions -  °F | °C
As of 10:51 AM on Sunday 23 Nov 2014 (Local Time) from KJFK Reporting Station
Broken Clouds Broken Clouds  
Wind Chill: 44°   Ceiling: 25000
Heat Index: 49°   Visibility: 10mi
Dew Point: 25°   Wind: 13mph
Humidity: 39%   Direction: 230°SW
Pressure: 30.21"   Gusts: NA
Location:  40.637°N, 73.6912°W
Report Text: KJFK 231551Z 23011KT 10SM FEW100 BKN250 09/M04 A3021 RMK AO2 SLP230 T00941039 $
Loading
Personal Weather Stations






























Interactive Weather Map New forecast layout! Learn more

10-Day Weather Forecast

Advertisements
Track Severe Weather on mobile